createdAt,value
2022-08-09T00:00:11.334Z,99947.66
2022-08-09T00:01:54.731Z,99949.91
2022-08-09T00:04:05.700Z,99947.56
2022-08-09T00:06:15.687Z,99949.44
2022-08-09T00:07:13.123Z,99949.72
2022-08-09T00:08:48.730Z,99947.28
2022-08-09T00:10:24.517Z,99954.41
2022-08-09T00:12:03.516Z,99949.41
2022-08-09T00:13:38.472Z,99948.47
2022-08-09T00:15:14.639Z,99953.06
2022-08-09T00:16:47.053Z,99954.78
2022-08-09T00:18:19.813Z,99953.84
2022-08-09T00:19:53.601Z,99951.19
2022-08-09T00:21:26.728Z,99946.78
2022-08-09T00:22:58.770Z,99955.53
2022-08-09T00:24:50.879Z,99956.53
2022-08-09T00:26:30.102Z,99951.56
2022-08-09T00:28:06.990Z,99964.22
2022-08-09T00:30:23.587Z,99957.53
2022-08-09T00:31:58.928Z,99956.00
2022-08-09T00:33:32.672Z,99963.16
2022-08-09T00:35:17.170Z,99960.44
2022-08-09T00:36:49.576Z,99959.50
2022-08-09T00:38:21.932Z,99961.03
2022-08-09T00:40:09.430Z,99965.34
2022-08-09T00:44:10.392Z,99961.94
2022-08-09T00:44:10.959Z,99970.13
2022-08-09T00:45:30.789Z,99959.94
2022-08-09T00:47:07.153Z,99957.59
2022-08-09T00:48:39.227Z,99961.97
2022-08-09T02:21:27.499Z,99967.00
2022-08-09T02:23:07.540Z,99974.81
2022-08-09T02:24:41.146Z,99979.28
2022-08-09T02:26:24.994Z,99979.28
2022-08-09T02:28:20.702Z,99980.38
2022-08-09T02:29:56.721Z,99982.28
2022-08-09T02:31:39.821Z,99982.38
2022-08-09T02:33:17.020Z,99992.03
2022-08-09T02:34:55.907Z,99990.25
2022-08-09T02:36:34.694Z,99994.66
2022-08-09T02:38:06.995Z,99988.63
2022-08-09T02:39:45.252Z,99992.09
2022-08-09T02:41:42.665Z,99987.84
2022-08-09T02:43:15.425Z,99997.59
2022-08-09T02:44:54.128Z,99991.44
2022-08-09T02:46:28.477Z,99993.34
2022-08-09T02:48:19.435Z,99989.09
2022-08-09T02:50:14.158Z,99990.19
2022-08-09T02:51:52.208Z,99994.75
2022-08-09T02:53:32.018Z,99998.31
2022-08-09T02:55:20.878Z,99993.25
2022-08-09T02:56:57.047Z,99998.59
2022-08-09T02:58:32.794Z,99997.84
2022-08-09T03:00:20.722Z,100002.44
2022-08-09T03:02:06.187Z,100008.69
2022-08-09T03:04:16.651Z,100014.94
2022-08-09T03:05:34.366Z,100006.44
2022-08-09T03:07:13.983Z,100003.28
2022-08-09T03:08:47.377Z,100013.75
2022-08-09T03:10:19.954Z,100020.78
2022-08-09T03:12:05.944Z,100016.44
2022-08-09T03:13:58.423Z,100011.31
2022-08-09T03:15:40.432Z,100005.34
2022-08-09T03:17:27.527Z,100010.59
2022-08-09T03:19:01.586Z,100006.19
2022-08-09T03:20:34.367Z,100013.34
2022-08-09T03:22:12.383Z,100017.81
2022-08-09T03:23:58.607Z,100013.59
2022-08-09T03:25:57.897Z,100017.25
2022-08-09T03:27:29.579Z,100020.78
2022-08-09T03:29:22.993Z,100014.78
2022-08-09T03:30:56.226Z,100020.88
2022-08-09T03:32:31.122Z,100014.56
2022-08-09T03:34:03.796Z,100007.59
2022-08-09T03:36:14.138Z,100006.75
2022-08-09T03:37:55.774Z,100006.75
2022-08-09T03:39:22.430Z,100016.47
2022-08-09T03:40:58.447Z,100012.16
2022-08-09T03:42:31.036Z,100009.59
2022-08-09T03:44:08.449Z,100009.66
2022-08-09T03:46:05.364Z,100006.97
2022-08-09T03:47:39.948Z,100006.03
2022-08-09T03:49:17.490Z,100006.97
2022-08-09T03:50:52.341Z,100012.28
2022-08-09T03:52:26.122Z,100000.19
2022-08-09T03:54:00.166Z,99997.72
2022-08-09T03:55:35.915Z,99996.78
2022-08-09T03:57:20.107Z,99993.38
2022-08-09T03:58:53.056Z,99999.56
2022-08-09T04:00:27.226Z,99992.47
2022-08-09T04:01:59.528Z,100006.34
2022-08-09T04:03:45.969Z,100011.50
2022-08-09T04:05:27.541Z,100001.91
2022-08-09T04:07:00.360Z,100004.34
2022-08-09T04:08:33.791Z,100009.44
2022-08-09T04:10:06.457Z,100006.69
2022-08-09T04:11:55.660Z,100007.47
2022-08-09T04:14:36.968Z,100009.09
2022-08-09T04:15:40.562Z,100007.19
2022-08-09T04:17:16.938Z,100014.00
2022-08-09T04:18:50.991Z,100005.97
2022-08-09T04:20:23.672Z,100010.06
2022-08-09T04:21:58.454Z,100012.56
2022-08-09T04:23:30.533Z,100009.84
2022-08-09T04:25:03.576Z,100012.22
2022-08-09T04:26:38.046Z,100017.34
2022-08-09T04:28:10.822Z,100012.81
2022-08-09T04:29:49.619Z,100027.53
2022-08-09T04:31:22.422Z,100025.69
2022-08-09T04:33:01.253Z,100035.16
2022-08-09T04:34:36.653Z,100028.78
2022-08-09T04:36:08.936Z,100029.19
2022-08-09T04:37:45.387Z,100019.88
2022-08-09T04:39:18.866Z,100018.41
2022-08-09T04:40:56.442Z,100018.88
2022-08-09T04:42:31.720Z,100018.28
2022-08-09T04:44:12.325Z,100023.81
2022-08-09T04:45:53.455Z,100023.25
2022-08-09T04:47:27.347Z,100019.09
2022-08-09T04:49:17.526Z,100024.66
2022-08-09T04:51:03.186Z,100029.97
2022-08-09T04:52:36.098Z,100026.94
2022-08-09T04:54:09.911Z,100025.59
2022-08-09T04:55:58.057Z,100028.75
2022-08-09T04:57:54.005Z,100024.91
2022-08-09T04:59:24.050Z,100025.44
2022-08-09T05:01:03.089Z,100029.53
2022-08-09T05:02:36.073Z,100024.94
2022-08-09T05:04:08.457Z,100023.91
2022-08-09T05:05:52.122Z,100030.63
2022-08-09T05:07:33.163Z,100027.38
2022-08-09T05:09:05.340Z,100027.69
2022-08-09T05:10:39.088Z,100022.66
2022-08-09T05:12:12.528Z,100024.56
2022-08-09T05:13:44.940Z,100021.78
2022-08-09T05:15:24.599Z,100027.88
2022-08-09T05:18:36.706Z,100022.31
2022-08-09T05:19:02.903Z,100014.13
2022-08-09T05:20:35.119Z,100020.34
2022-08-09T05:22:08.278Z,100015.25
2022-08-09T05:24:02.375Z,100022.41
2022-08-09T05:25:36.799Z,100029.75
2022-08-09T05:27:09.260Z,100025.59
2022-08-09T05:28:46.131Z,100026.88
2022-08-09T05:30:19.546Z,100028.06
2022-08-09T05:31:56.961Z,100025.78
2022-08-09T05:33:32.892Z,100037.53
2022-08-09T05:35:06.287Z,100038.72
2022-08-09T05:36:39.892Z,100032.28
2022-08-09T05:38:21.709Z,100030.00
2022-08-09T05:39:54.379Z,100035.94
2022-08-09T05:41:26.936Z,100034.72
2022-08-09T05:42:59.367Z,100037.78
2022-08-09T05:44:34.612Z,100035.06
2022-08-09T05:46:07.675Z,100039.06
2022-08-09T05:47:52.242Z,100032.53
2022-08-09T05:50:24.510Z,100030.44
2022-08-09T05:51:42.600Z,100032.53
2022-08-09T05:53:21.434Z,100028.31
2022-08-09T05:54:53.999Z,100022.41
2022-08-09T05:56:28.809Z,100018.19
2022-08-09T05:58:00.853Z,100018.69
2022-08-09T05:59:33.241Z,100023.50
2022-08-09T06:01:06.731Z,100015.00
2022-08-09T06:02:38.813Z,100026.63
2022-08-09T06:04:23.481Z,100016.69
2022-08-09T06:06:04.333Z,100017.91
2022-08-09T06:07:38.262Z,100016.56
2022-08-09T06:09:40.799Z,100013.47
2022-08-09T06:11:16.430Z,100016.31
2022-08-09T06:13:02.788Z,100012.97
2022-08-09T06:14:35.715Z,100019.19
2022-08-09T06:16:08.555Z,100019.59
2022-08-09T06:17:42.399Z,100021.56
2022-08-09T06:19:19.283Z,100026.41
2022-08-09T06:20:57.140Z,100022.13
2022-08-09T06:22:29.924Z,100019.53
2022-08-09T06:24:02.667Z,100024.13
2022-08-09T06:25:35.103Z,100030.41
2022-08-09T06:27:07.642Z,100027.31
2022-08-09T06:28:43.372Z,100031.09
2022-08-09T06:30:16.067Z,100026.88
2022-08-09T06:32:08.501Z,100028.97
2022-08-09T06:33:42.062Z,100030.41
2022-08-09T06:35:21.340Z,100026.56
2022-08-09T06:37:13.896Z,100026.69
2022-08-09T06:38:50.150Z,100032.09
2022-08-09T06:40:26.190Z,100026.31
2022-08-09T06:42:11.177Z,100029.47
2022-08-09T06:43:43.855Z,100022.84
2022-08-09T06:46:04.719Z,100015.13
2022-08-09T06:47:08.553Z,100017.19
2022-08-09T06:48:43.162Z,100023.09
2022-08-09T06:50:19.274Z,100017.53
2022-08-09T06:51:54.871Z,100016.22
2022-08-09T06:53:33.348Z,100017.41
2022-08-09T06:55:12.767Z,100015.84
2022-08-09T06:56:46.492Z,100016.19
2022-08-09T07:00:48.978Z,100010.69
2022-08-09T07:00:52.658Z,100012.31
2022-08-09T07:02:05.005Z,100010.19
2022-08-09T07:03:39.471Z,100006.31
2022-08-09T07:05:24.955Z,100004.63
2022-08-09T07:07:59.922Z,100005.69
2022-08-09T07:09:57.309Z,100006.00
2022-08-09T07:11:06.265Z,100009.84
2022-08-09T07:12:42.007Z,100011.63
2022-08-09T07:14:26.615Z,100015.88
2022-08-09T07:16:41.668Z,100016.72
2022-08-09T07:17:52.665Z,100015.88
2022-08-09T07:19:28.825Z,100023.56
2022-08-09T07:21:01.612Z,100017.88
2022-08-09T07:22:36.250Z,100011.44
2022-08-09T07:24:14.698Z,100015.53
2022-08-09T07:25:48.240Z,100020.31
2022-08-09T07:29:11.861Z,100025.09
2022-08-09T07:30:45.843Z,100020.81
2022-08-09T07:32:20.995Z,100019.28
2022-08-09T07:33:55.885Z,100011.66
2022-08-09T07:35:28.879Z,100019.66
2022-08-09T07:37:15.929Z,100021.84
2022-08-09T07:38:56.838Z,100016.00
2022-08-09T07:41:00.514Z,100013.53
2022-08-09T07:42:32.518Z,100005.72
2022-08-09T07:44:05.560Z,100011.19
2022-08-09T07:45:40.917Z,100008.97
2022-08-09T07:47:13.272Z,100008.69
2022-08-09T07:48:59.629Z,100016.25
2022-08-09T07:50:36.723Z,100002.53
2022-08-09T07:52:17.219Z,100011.94
2022-08-09T07:54:04.800Z,100002.00
2022-08-09T07:55:41.568Z,99993.31
2022-08-09T07:57:35.954Z,99994.97
2022-08-09T07:59:15.772Z,100001.69
2022-08-09T08:01:05.968Z,99991.34
2022-08-09T08:02:42.401Z,100002.41
2022-08-09T08:04:15.415Z,99998.09
2022-08-09T08:05:54.285Z,100000.06
2022-08-09T08:08:43.397Z,100003.53
2022-08-09T08:09:38.588Z,100000.31
2022-08-09T08:12:11.045Z,100000.78
2022-08-09T08:13:10.332Z,99998.69
2022-08-09T08:14:43.596Z,99996.41
2022-08-09T08:16:29.599Z,99994.31
2022-08-09T08:18:04.374Z,99990.41
2022-08-09T08:19:37.263Z,99990.84
2022-08-09T08:21:12.486Z,99985.22
2022-08-09T08:22:48.438Z,99985.63
2022-08-09T08:24:20.840Z,99985.34
2022-08-09T08:26:06.483Z,99982.25
2022-08-09T08:27:41.060Z,99987.44
2022-08-09T08:29:15.390Z,99976.72
2022-08-09T08:30:52.605Z,99980.41
2022-08-09T08:32:29.269Z,99984.03
2022-08-09T08:34:02.393Z,99985.66
2022-08-09T08:35:58.398Z,99981.72
2022-08-09T08:37:41.396Z,99984.94
2022-08-09T08:39:23.456Z,99979.03
2022-08-09T08:40:56.769Z,99984.63
2022-08-09T08:42:31.875Z,99978.53
2022-08-09T08:44:05.487Z,99973.31
2022-08-09T08:45:53.563Z,99964.56
2022-08-09T08:47:38.565Z,99966.94
2022-08-09T08:49:19.119Z,99961.00
2022-08-09T08:50:52.168Z,99962.94
2022-08-09T08:52:59.765Z,99957.69
2022-08-09T08:54:29.669Z,99960.91
2022-08-09T08:56:02.734Z,99961.25
2022-08-09T08:57:35.878Z,99959.13
2022-08-09T08:59:19.454Z,99955.03
2022-08-09T09:00:54.277Z,99951.50
2022-08-09T09:02:31.833Z,99956.22
2022-08-09T09:04:05.531Z,99950.59
2022-08-09T09:06:00.149Z,99941.75
2022-08-09T09:07:36.920Z,99949.19
2022-08-09T09:09:21.163Z,99940.16
2022-08-09T09:11:13.636Z,99948.41
2022-08-09T09:12:50.473Z,99938.03
2022-08-09T09:14:26.497Z,99934.06
2022-08-09T09:15:58.938Z,99927.88
2022-08-09T09:17:48.571Z,99929.09
2022-08-09T09:19:40.727Z,99922.59
2022-08-09T09:21:13.918Z,99930.84
2022-08-09T09:23:01.945Z,99935.38
2022-08-09T09:24:38.007Z,99937.63
2022-08-09T09:26:12.773Z,99927.75
2022-08-09T09:28:04.161Z,99925.22
2022-08-09T09:30:11.543Z,99922.94
2022-08-09T09:32:06.039Z,99928.66
2022-08-09T09:33:44.606Z,99922.81
2022-08-09T09:35:17.755Z,99925.91
2022-08-09T09:36:54.249Z,99925.78
2022-08-09T09:38:43.423Z,99921.81
2022-08-09T09:40:17.705Z,99922.13
2022-08-09T09:41:51.093Z,99916.81
2022-08-09T09:43:23.457Z,99916.50
2022-08-09T09:45:01.041Z,99915.19
2022-08-09T09:46:42.950Z,99913.19
2022-08-09T09:48:19.560Z,99909.53
2022-08-09T09:50:07.065Z,99913.88
2022-08-09T09:51:47.847Z,99913.06
2022-08-09T09:53:57.269Z,99912.59
2022-08-09T09:55:28.924Z,99909.75
2022-08-09T09:58:03.292Z,99915.94
2022-08-09T09:59:14.162Z,99919.88
2022-08-09T10:00:58.949Z,99917.59
2022-08-09T10:02:45.847Z,99909.75
2022-08-09T10:04:23.006Z,99908.44
2022-08-09T10:06:05.008Z,99917.00
2022-08-09T10:07:37.977Z,99916.28
2022-08-09T10:09:54.557Z,99916.31
2022-08-09T10:11:59.526Z,99912.63
2022-08-09T10:13:42.940Z,99911.94
2022-08-09T10:15:25.538Z,99917.47
2022-08-09T10:17:39.609Z,99913.53
2022-08-09T10:19:06.761Z,99905.66
2022-08-09T10:20:45.164Z,99906.88
2022-08-09T10:22:29.207Z,99898.31
2022-08-09T10:24:03.949Z,99903.66
2022-08-09T10:26:07.626Z,99902.31
2022-08-09T10:27:34.614Z,99899.84
2022-08-09T10:29:38.039Z,99894.31
2022-08-09T10:32:59.422Z,99907.44
2022-08-09T10:34:33.582Z,99900.91
2022-08-09T10:36:12.262Z,99898.22
2022-08-09T10:37:45.158Z,99901.91
2022-08-09T10:39:19.936Z,99894.06
2022-08-09T10:40:52.997Z,99892.53
2022-08-09T10:42:28.702Z,99887.84
2022-08-09T10:44:04.915Z,99890.53
2022-08-09T10:45:58.421Z,99889.75
2022-08-09T10:48:19.496Z,99881.41
2022-08-09T10:49:54.579Z,99883.03
2022-08-09T10:51:29.887Z,99885.03
2022-08-09T10:53:23.229Z,99883.84
2022-08-09T10:54:55.821Z,99880.69
2022-08-09T10:56:30.634Z,99883.34
2022-08-09T10:58:03.890Z,99880.34
2022-08-09T10:59:43.151Z,99877.66
2022-08-09T11:03:13.915Z,99875.16
2022-08-09T11:03:28.042Z,99876.72
2022-08-09T11:05:24.953Z,99883.06
2022-08-09T11:07:02.201Z,99876.03
2022-08-09T11:08:47.045Z,99872.88
2022-08-09T11:10:53.224Z,99870.66
2022-08-09T11:12:30.332Z,99878.53
2022-08-09T11:14:38.512Z,99873.19
2022-08-09T11:16:47.154Z,99866.66
2022-08-09T11:18:46.283Z,99865.97
2022-08-09T11:20:39.286Z,99858.28
2022-08-09T11:22:24.253Z,99854.06
2022-08-09T11:24:05.046Z,99852.72
2022-08-09T11:25:47.111Z,99853.56
2022-08-09T11:28:03.789Z,99853.22
2022-08-09T11:30:05.266Z,99843.00
2022-08-09T11:31:52.506Z,99841.81
2022-08-09T11:33:48.063Z,99846.13
2022-08-09T11:35:34.831Z,99833.69
2022-08-09T11:37:40.681Z,99830.50
2022-08-09T11:39:13.749Z,99830.84
2022-08-09T11:40:49.890Z,99813.44
2022-08-09T11:42:49.013Z,99823.63
2022-08-09T11:44:21.753Z,99819.63
2022-08-09T11:46:02.338Z,99827.16
2022-08-09T11:48:01.308Z,99812.41
2022-08-09T11:50:56.849Z,99813.59
2022-08-09T11:53:02.757Z,99811.91
2022-08-09T11:54:27.606Z,99801.53
2022-08-09T11:56:14.944Z,99801.81
2022-08-09T11:58:00.999Z,99794.69
2022-08-09T11:59:44.344Z,99790.34
2022-08-09T12:02:18.262Z,99792.19
2022-08-09T12:03:56.668Z,99807.53
2022-08-09T12:05:42.288Z,99796.13
2022-08-09T12:07:19.593Z,99799.50
2022-08-09T12:08:54.039Z,99793.34
2022-08-09T12:10:38.807Z,99791.53
2022-08-09T12:12:28.540Z,99788.03
2022-08-09T12:14:36.464Z,99787.91
2022-08-09T12:16:01.011Z,99788.38
2022-08-09T12:17:44.556Z,99776.94
2022-08-09T12:19:29.630Z,99782.78
2022-08-09T12:21:03.206Z,99775.34
2022-08-09T12:22:35.631Z,99774.66
2022-08-09T12:24:10.249Z,99776.31
2022-08-09T12:25:49.277Z,99770.91
2022-08-09T12:29:13.385Z,99777.09
2022-08-09T12:29:43.979Z,99778.41
2022-08-09T12:31:58.785Z,99772.22
2022-08-09T12:33:22.317Z,99764.00
2022-08-09T12:35:02.995Z,99765.06
2022-08-09T12:36:58.813Z,99764.28
2022-08-09T12:38:42.032Z,99761.41
2022-08-09T12:40:18.456Z,99760.31
2022-08-09T12:41:51.675Z,99754.09
2022-08-09T12:44:05.380Z,99755.97
2022-08-09T12:45:33.484Z,99746.81
2022-08-09T12:47:11.003Z,99735.69
2022-08-09T12:48:45.057Z,99751.16
2022-08-09T12:50:23.403Z,99745.97
2022-08-09T12:52:01.605Z,99746.69
2022-08-09T12:53:38.801Z,99740.38
2022-08-09T12:56:12.981Z,99729.47
2022-08-09T12:57:40.055Z,99740.59
2022-08-09T12:59:14.304Z,99732.97
2022-08-09T13:00:48.725Z,99729.94
2022-08-09T13:02:21.385Z,99720.97
2022-08-09T13:04:05.711Z,99729.34
2022-08-09T13:05:51.618Z,99723.53
2022-08-09T13:07:51.064Z,99717.69
2022-08-09T13:09:32.121Z,99720.50
2022-08-09T13:11:23.163Z,99712.31
2022-08-09T13:13:09.671Z,99704.91
2022-08-09T13:14:48.845Z,99703.00
2022-08-09T13:16:22.652Z,99700.94
2022-08-09T13:18:05.696Z,99699.66
2022-08-09T13:20:09.799Z,99704.72
2022-08-09T13:22:45.601Z,99701.50
2022-08-09T13:24:17.232Z,99707.38
2022-08-09T13:25:54.705Z,99702.94
2022-08-09T13:27:31.195Z,99710.72
2022-08-09T13:29:17.776Z,99705.94
2022-08-09T13:32:13.912Z,99701.78
2022-08-09T13:33:02.985Z,99701.50
2022-08-09T13:34:40.458Z,99702.19
2022-08-09T13:36:41.538Z,99698.34
2022-08-09T13:38:17.557Z,99696.34
2022-08-09T13:41:56.659Z,99691.59
2022-08-09T13:42:00.934Z,99701.75
2022-08-09T13:43:39.681Z,99698.34
2022-08-09T13:45:13.148Z,99702.13
2022-08-09T13:47:16.692Z,99696.84
2022-08-09T13:48:42.288Z,99695.59
2022-08-09T13:50:30.745Z,99702.22
2022-08-09T13:52:05.040Z,99696.97
2022-08-09T13:53:44.682Z,99699.56
2022-08-09T13:55:17.590Z,99702.19
2022-08-09T13:56:51.415Z,99693.44
2022-08-09T13:58:23.741Z,99691.88
2022-08-09T13:59:58.283Z,99697.72
2022-08-09T14:02:01.316Z,99680.88
2022-08-09T14:04:04.821Z,99681.19
2022-08-09T14:05:57.102Z,99684.78
2022-08-09T14:07:08.909Z,99674.41
2022-08-09T14:08:42.871Z,99676.72
2022-08-09T14:10:17.470Z,99675.50
2022-08-09T14:12:15.335Z,99675.16
2022-08-09T14:14:22.254Z,99675.00
2022-08-09T14:16:10.491Z,99681.44
2022-08-09T14:18:16.445Z,99677.47
2022-08-09T14:19:26.471Z,99682.94
2022-08-09T14:21:05.860Z,99672.13
2022-08-09T14:22:38.832Z,99675.66
2022-08-09T14:24:18.673Z,99673.81
2022-08-09T14:25:57.112Z,99666.38
2022-08-09T14:27:34.187Z,99662.38
2022-08-09T14:30:34.077Z,99666.28
2022-08-09T14:31:18.516Z,99660.44
2022-08-09T14:32:55.907Z,99656.28
2022-08-09T14:34:32.700Z,99662.47
2022-08-09T14:36:19.792Z,99661.81
2022-08-09T14:38:02.330Z,99659.69
2022-08-09T14:39:46.516Z,99653.84
2022-08-09T14:41:39.670Z,99658.88
2022-08-09T14:43:18.515Z,99666.63
2022-08-09T14:45:00.051Z,99662.47
2022-08-09T14:46:58.036Z,99664.59
2022-08-09T14:48:26.735Z,99659.28
2022-08-09T14:50:02.067Z,99661.50
2022-08-09T14:51:41.934Z,99665.09
2022-08-09T14:53:15.430Z,99678.09
2022-08-09T14:54:49.233Z,99693.13
2022-08-09T14:56:22.718Z,99689.09
2022-08-09T14:57:59.597Z,99684.94
2022-08-09T14:59:31.991Z,99696.75
2022-08-09T15:01:11.270Z,99695.50
2022-08-09T15:02:47.356Z,99707.81
2022-08-09T15:04:24.020Z,99690.25
2022-08-09T15:06:01.683Z,99688.59
2022-08-09T15:07:36.535Z,99687.91
2022-08-09T15:09:09.010Z,99684.38
2022-08-09T15:10:42.505Z,99693.59
2022-08-09T15:12:14.904Z,99688.22
2022-08-09T15:13:56.499Z,99685.84
2022-08-09T15:15:38.993Z,99678.16
2022-08-09T15:17:12.213Z,99684.97
2022-08-09T15:18:49.416Z,99689.41
2022-08-09T15:21:55.134Z,99688.72
2022-08-09T15:22:17.541Z,99684.03
2022-08-09T15:24:01.493Z,99689.53
2022-08-09T15:25:41.705Z,99688.22
2022-08-09T15:27:14.106Z,99684.03
2022-08-09T15:28:54.789Z,99684.06
2022-08-09T15:31:00.671Z,99689.94
2022-08-09T15:32:29.388Z,99691.78
2022-08-09T15:34:31.977Z,99694.78
2022-08-09T15:36:01.501Z,99696.63
2022-08-09T15:37:57.263Z,99703.50
2022-08-09T15:39:34.803Z,99701.97
2022-08-09T15:41:22.539Z,99706.81
2022-08-09T15:42:55.026Z,99707.16
2022-08-09T15:44:27.796Z,99706.47
2022-08-09T15:46:31.641Z,99710.47
2022-08-09T15:48:05.203Z,99714.13
2022-08-09T15:49:40.294Z,99714.13
2022-08-09T15:52:01.912Z,99713.81
2022-08-09T15:54:03.884Z,99714.16
2022-08-09T15:55:21.094Z,99710.97
2022-08-09T15:56:53.305Z,99709.81
2022-08-09T15:58:27.010Z,99711.34
2022-08-09T15:59:59.729Z,99712.88
2022-08-09T16:01:35.492Z,99710.88
2022-08-09T16:03:08.539Z,99714.38
2022-08-09T16:04:42.777Z,99712.72
2022-08-09T16:06:27.375Z,99710.34
2022-08-09T16:08:08.533Z,99711.72
2022-08-09T16:10:02.484Z,99712.53
2022-08-09T16:11:37.973Z,99713.91
2022-08-09T16:13:20.964Z,99714.91
2022-08-09T16:15:03.173Z,99706.72
2022-08-09T16:16:37.995Z,99705.56
2022-08-09T16:18:11.889Z,99707.22
2022-08-09T16:19:49.363Z,99699.88
2022-08-09T16:21:37.970Z,99704.41
2022-08-09T16:23:11.971Z,99700.88
2022-08-09T16:24:45.249Z,99701.72
2022-08-09T16:26:35.316Z,99704.56
2022-08-09T16:28:12.127Z,99699.84
2022-08-09T16:29:50.644Z,99706.22
2022-08-09T16:32:11.103Z,99703.34
2022-08-09T16:33:18.530Z,99696.13
2022-08-09T16:34:56.513Z,99700.25
2022-08-09T16:36:30.933Z,99696.72
2022-08-09T16:38:03.950Z,99697.53
2022-08-09T16:39:47.861Z,99698.69
2022-08-09T16:42:02.689Z,99696.31
2022-08-09T16:43:20.912Z,99696.44
2022-08-09T16:44:53.703Z,99689.50
2022-08-09T16:46:29.856Z,99690.75
2022-08-09T16:48:37.913Z,99697.84
2022-08-09T16:50:29.396Z,99700.38
2022-08-09T16:51:53.851Z,99710.06
2022-08-09T16:53:34.275Z,99716.78
2022-08-09T16:55:08.125Z,99712.16
2022-08-09T16:56:49.538Z,99716.47
2022-08-09T16:58:22.537Z,99719.31
2022-08-09T16:59:57.458Z,99713.06
2022-08-09T17:01:34.011Z,99716.47
2022-08-09T17:03:07.974Z,99710.06
2022-08-09T17:04:53.737Z,99705.47
2022-08-09T17:06:28.840Z,99712.97
2022-08-09T17:08:46.675Z,99714.38
2022-08-09T17:10:01.744Z,99717.00
2022-08-09T17:11:40.431Z,99710.59
2022-08-09T17:13:14.618Z,99720.69
2022-08-09T17:14:49.121Z,99723.53
2022-08-09T17:16:23.152Z,99715.66
2022-08-09T17:18:00.382Z,99722.38
2022-08-09T17:19:46.331Z,99725.31
2022-08-09T17:21:20.399Z,99715.38
2022-08-09T17:22:52.896Z,99730.47
2022-08-09T17:24:28.308Z,99725.00
2022-08-09T17:26:03.369Z,99729.44
2022-08-09T17:27:40.130Z,99731.94
2022-08-09T17:29:22.029Z,99741.28
2022-08-09T17:30:56.157Z,99739.81
2022-08-09T17:32:37.478Z,99739.50
2022-08-09T17:35:01.364Z,99738.38
2022-08-09T17:36:03.703Z,99744.44
2022-08-09T17:38:11.705Z,99743.81
2022-08-09T17:39:52.248Z,99757.56
2022-08-09T17:41:22.375Z,99758.47
2022-08-09T17:43:32.589Z,99757.34
2022-08-09T17:45:03.101Z,99754.84
2022-08-09T17:46:38.945Z,99763.91
2022-08-09T17:48:29.333Z,99759.69
2022-08-09T17:50:12.561Z,99768.44
2022-08-09T17:51:50.863Z,99774.78
2022-08-09T17:53:23.109Z,99785.88
2022-08-09T17:54:55.663Z,99786.19
2022-08-09T17:56:35.473Z,99786.81
2022-08-09T17:58:09.726Z,99794.66
2022-08-09T17:59:42.976Z,99796.97
2022-08-09T18:01:22.745Z,99803.13
2022-08-09T18:02:58.362Z,99810.91
2022-08-09T18:04:31.188Z,99813.22
2022-08-09T18:06:03.904Z,99812.88
2022-08-09T18:07:48.886Z,99815.25
2022-08-09T18:09:23.684Z,99812.00
2022-08-09T18:11:01.998Z,99818.38
2022-08-09T18:12:40.754Z,99827.41
2022-08-09T18:14:27.828Z,99826.34
2022-08-09T18:16:07.520Z,99826.59
2022-08-09T18:18:02.090Z,99830.06
2022-08-09T18:20:54.133Z,99825.50
2022-08-09T18:21:26.224Z,99830.91
2022-08-09T18:23:04.681Z,99830.56
2022-08-09T18:24:38.547Z,99839.56
2022-08-09T18:26:11.748Z,99845.47
2022-08-09T18:28:02.032Z,99847.97
2022-08-09T18:30:40.805Z,99856.25
2022-08-09T18:31:51.277Z,99853.34
2022-08-09T18:33:23.280Z,99860.72
2022-08-09T18:34:55.984Z,99855.13
2022-08-09T18:36:32.426Z,99863.38
2022-08-09T18:38:10.156Z,99871.78
2022-08-09T18:39:48.365Z,99872.28
2022-08-09T18:41:21.104Z,99868.38
2022-08-09T18:43:00.065Z,99865.34
2022-08-09T18:44:32.769Z,99870.84
2022-08-09T18:46:49.221Z,99870.75
2022-08-09T18:47:58.694Z,99874.56
2022-08-09T18:49:31.854Z,99876.72
2022-08-09T18:51:05.105Z,99876.19
2022-08-09T18:52:39.051Z,99878.34
2022-08-09T18:54:20.017Z,99870.53
2022-08-09T18:56:05.800Z,99871.59
2022-08-09T18:57:44.512Z,99874.00
2022-08-09T18:59:17.718Z,99870.91
2022-08-09T19:00:53.584Z,99871.88
2022-08-09T19:02:33.142Z,99873.69
2022-08-09T19:04:09.352Z,99874.06
2022-08-09T19:06:02.101Z,99876.59
2022-08-09T19:07:34.569Z,99881.50
2022-08-09T19:09:07.922Z,99877.16
2022-08-09T19:10:46.385Z,99885.31
2022-08-09T19:12:20.842Z,99882.91
2022-08-09T19:13:53.907Z,99882.16
2022-08-09T19:15:32.456Z,99893.94
2022-08-09T19:17:04.952Z,99895.84
2022-08-09T19:18:45.384Z,99894.88
2022-08-09T19:20:18.089Z,99898.25
2022-08-09T19:22:04.317Z,99895.50
2022-08-09T19:24:33.235Z,99886.94
2022-08-09T19:26:01.554Z,99901.22
2022-08-09T19:27:28.646Z,99900.50
2022-08-09T19:29:03.488Z,99895.31
2022-08-09T19:30:44.630Z,99898.91
2022-08-09T19:32:17.318Z,99902.63
2022-08-09T19:33:49.684Z,99910.09
2022-08-09T19:35:26.210Z,99906.22
2022-08-09T19:36:58.856Z,99910.78
2022-08-09T19:38:31.343Z,99902.94
2022-08-09T19:40:05.760Z,99901.47
2022-08-09T19:41:38.456Z,99902.97
2022-08-09T19:43:16.285Z,99906.16
2022-08-09T19:45:08.140Z,99907.78
2022-08-09T19:46:50.508Z,99906.41
2022-08-09T19:49:00.520Z,99900.69
2022-08-09T19:50:48.950Z,99914.19
2022-08-09T19:52:12.317Z,99916.09
2022-08-09T19:53:45.580Z,99923.50
2022-08-09T19:55:30.680Z,99929.00
2022-08-09T19:57:16.418Z,99924.22
2022-08-09T19:58:56.189Z,99933.38
2022-08-09T20:00:29.086Z,99929.34
2022-08-09T20:02:15.626Z,99923.47
2022-08-09T20:04:17.954Z,99921.09
2022-08-09T20:05:50.815Z,99920.06
2022-08-09T20:07:24.898Z,99924.69
2022-08-09T20:09:06.355Z,99925.53
2022-08-09T20:10:38.583Z,99921.31
2022-08-09T20:12:31.704Z,99923.19
2022-08-09T20:14:08.449Z,99927.72
2022-08-09T20:16:33.645Z,99928.97
2022-08-09T20:17:41.666Z,99936.63
2022-08-09T20:19:47.706Z,99938.09
2022-08-09T20:21:13.942Z,99934.09
2022-08-09T20:22:48.654Z,99930.03
2022-08-09T20:24:31.836Z,99936.16
2022-08-09T20:26:06.780Z,99939.75
2022-08-09T20:27:43.708Z,99935.41
2022-08-09T20:29:18.921Z,99937.19
2022-08-09T20:30:52.241Z,99938.25
2022-08-09T20:32:41.386Z,99930.34
2022-08-09T20:34:18.021Z,99949.16
2022-08-09T20:35:53.758Z,99942.75
2022-08-09T20:38:19.545Z,99943.69
2022-08-09T20:40:14.021Z,99940.00
2022-08-09T20:41:13.108Z,99934.47
2022-08-09T20:42:46.651Z,99939.00
2022-08-09T20:44:36.164Z,99936.50
2022-08-09T20:46:33.210Z,99942.00
2022-08-09T20:48:01.258Z,99938.63
2022-08-09T20:49:33.777Z,99940.50
2022-08-09T20:51:07.386Z,99947.75
2022-08-09T20:52:53.477Z,99947.41
2022-08-09T20:54:26.196Z,99948.63
2022-08-09T20:56:02.917Z,99949.88
2022-08-09T20:58:05.436Z,99948.47
2022-08-09T20:59:50.144Z,99951.38
2022-08-09T21:01:34.516Z,99948.47
2022-08-09T21:03:12.298Z,99948.84
2022-08-09T21:05:55.899Z,99940.66
2022-08-09T21:06:44.669Z,99941.16
2022-08-09T21:08:17.046Z,99931.53
2022-08-09T21:09:56.701Z,99943.03
2022-08-09T21:13:23.567Z,99950.47
2022-08-09T21:14:57.531Z,99956.06
2022-08-09T21:16:30.552Z,99958.19